createdAt,value
2022-09-01T00:00:16.706Z,14.53
2022-09-01T00:02:46.232Z,14.51
2022-09-01T00:05:15.557Z,14.50
2022-09-01T00:07:46.334Z,14.49
2022-09-01T00:10:15.730Z,14.51
2022-09-01T00:12:45.653Z,14.48
2022-09-01T00:15:15.734Z,14.50
2022-09-01T00:17:44.954Z,14.46
2022-09-01T00:20:19.605Z,14.43
2022-09-01T00:22:51.166Z,14.45
2022-09-01T00:25:21.782Z,14.42
2022-09-01T00:27:51.689Z,14.42
2022-09-01T00:30:21.999Z,14.39
2022-09-01T00:32:51.257Z,14.43
2022-09-01T00:35:21.468Z,14.35
2022-09-01T00:37:52.175Z,14.37
2022-09-01T00:40:21.687Z,14.39
2022-09-01T00:42:51.106Z,14.33
2022-09-01T00:45:23.043Z,14.24
2022-09-01T00:47:52.311Z,14.26
2022-09-01T00:50:22.786Z,14.22
2022-09-01T00:52:56.232Z,14.27
2022-09-01T00:55:30.311Z,14.31
2022-09-01T00:58:03.683Z,14.28
2022-09-01T01:00:41.738Z,14.29
2022-09-01T01:03:12.671Z,14.38
2022-09-01T01:05:46.878Z,14.41
2022-09-01T01:08:19.960Z,14.40
2022-09-01T01:10:49.256Z,14.38
2022-09-01T01:13:18.800Z,14.38
2022-09-01T01:15:48.288Z,14.40
2022-09-01T01:18:23.354Z,14.36
2022-09-01T01:21:21.328Z,14.37
2022-09-01T01:23:59.124Z,14.36
2022-09-01T01:26:30.363Z,14.32
2022-09-01T01:29:01.648Z,14.43
2022-09-01T01:31:32.680Z,14.54
2022-09-01T01:34:02.169Z,14.52
2022-09-01T01:36:36.502Z,14.73
2022-09-01T01:39:11.251Z,14.47
2022-09-01T01:41:48.771Z,14.47
2022-09-01T01:44:22.657Z,14.47
2022-09-01T01:46:55.268Z,14.33
2022-09-01T01:49:29.204Z,14.27
2022-09-01T01:51:59.175Z,14.21
2022-09-01T01:54:32.821Z,14.23
2022-09-01T01:57:04.376Z,14.27
2022-09-01T01:59:34.593Z,14.17
2022-09-01T02:02:08.728Z,14.10
2022-09-01T02:04:40.156Z,14.15
2022-09-01T02:07:14.508Z,14.15
2022-09-01T02:09:48.198Z,14.10
2022-09-01T02:12:19.839Z,14.18
2022-09-01T02:14:50.248Z,14.34
2022-09-01T02:17:21.334Z,14.27
2022-09-01T02:19:51.442Z,14.23
2022-09-01T02:22:21.774Z,14.24
2022-09-01T02:24:52.622Z,14.24
2022-09-01T02:27:25.968Z,14.24
2022-09-01T02:29:58.980Z,14.24
2022-09-01T02:32:28.254Z,14.19
2022-09-01T02:35:01.316Z,14.15
2022-09-01T02:37:30.805Z,14.15
2022-09-01T02:40:00.031Z,14.20
2022-09-01T02:42:30.912Z,14.19
2022-09-01T02:45:00.121Z,14.15
2022-09-01T02:47:33.091Z,14.15
2022-09-01T02:50:03.427Z,14.24
2022-09-01T02:52:38.210Z,14.13
2022-09-01T02:55:09.374Z,14.05
2022-09-01T02:57:40.307Z,14.16
2022-09-01T03:00:20.901Z,14.13
2022-09-01T03:02:53.406Z,14.13
2022-09-01T03:05:25.481Z,14.22
2022-09-01T03:07:58.021Z,14.18
2022-09-01T03:10:36.228Z,14.15
2022-09-01T03:13:11.227Z,14.09
2022-09-01T03:15:42.128Z,14.13
2022-09-01T03:18:14.145Z,14.14
2022-09-01T03:20:46.572Z,14.16
2022-09-01T03:23:19.408Z,14.18
2022-09-01T03:25:50.429Z,14.19
2022-09-01T03:28:21.272Z,14.20
2022-09-01T03:30:54.790Z,14.19
2022-09-01T03:33:27.596Z,14.18
2022-09-01T03:35:58.497Z,14.18
2022-09-01T03:38:28.810Z,14.26
2022-09-01T03:41:03.042Z,14.26
2022-09-01T03:43:36.498Z,14.24
2022-09-01T03:46:10.081Z,14.26
2022-09-01T03:48:39.801Z,14.26
2022-09-01T03:51:14.397Z,14.26
2022-09-01T03:53:44.019Z,14.27
2022-09-01T03:56:14.073Z,14.25
2022-09-01T03:58:47.387Z,14.30
2022-09-01T04:01:22.012Z,14.27
2022-09-01T04:03:52.334Z,14.30
2022-09-01T04:06:26.095Z,14.24
2022-09-01T04:09:02.949Z,14.28
2022-09-01T04:11:36.263Z,14.26
2022-09-01T04:14:07.733Z,14.24
2022-09-01T04:16:58.294Z,14.27
2022-09-01T04:19:30.656Z,14.28
2022-09-01T04:22:02.318Z,14.29
2022-09-01T04:24:45.069Z,14.31
2022-09-01T04:27:18.291Z,14.34
2022-09-01T04:29:50.181Z,14.37
2022-09-01T04:32:21.708Z,14.42
2022-09-01T04:34:55.569Z,14.40
2022-09-01T04:38:16.297Z,14.43
2022-09-01T04:45:36.337Z,14.54
2022-09-01T04:48:08.731Z,14.58
2022-09-01T04:50:41.553Z,14.62
2022-09-01T04:53:28.458Z,14.67
2022-09-01T04:56:06.272Z,14.70
2022-09-01T04:58:38.895Z,14.67
2022-09-01T05:01:18.320Z,14.75
2022-09-01T05:03:48.293Z,14.82
2022-09-01T05:06:39.521Z,14.88
2022-09-01T05:09:10.046Z,14.88
2022-09-01T05:12:01.747Z,14.93
2022-09-01T05:14:32.923Z,14.97
2022-09-01T05:17:10.267Z,14.99
2022-09-01T05:19:41.020Z,15.07
2022-09-01T05:22:13.305Z,15.11
2022-09-01T05:24:46.910Z,15.19
2022-09-01T05:27:18.142Z,15.26
2022-09-01T05:29:47.533Z,15.31
2022-09-01T05:32:26.226Z,15.39
2022-09-01T05:34:57.155Z,15.51
2022-09-01T05:37:30.371Z,15.60
2022-09-01T05:40:00.017Z,15.67
2022-09-01T05:42:30.502Z,15.74
2022-09-01T05:45:00.387Z,15.81
2022-09-01T05:47:41.902Z,15.91
2022-09-01T05:50:16.723Z,15.95
2022-09-01T05:52:48.029Z,16.00
2022-09-01T05:55:17.815Z,15.99
2022-09-01T05:57:48.245Z,16.06
2022-09-01T06:00:20.436Z,16.14
2022-09-01T06:02:53.821Z,16.20
2022-09-01T06:05:27.026Z,16.31
2022-09-01T06:07:57.452Z,16.46
2022-09-01T06:10:28.240Z,16.59
2022-09-01T06:13:02.694Z,16.64
2022-09-01T06:15:53.639Z,16.84
2022-09-01T06:18:24.469Z,16.99
2022-09-01T06:20:59.896Z,17.16
2022-09-01T06:23:32.094Z,17.26
2022-09-01T06:26:05.656Z,17.27
2022-09-01T06:28:35.132Z,17.38
2022-09-01T06:31:09.675Z,17.41
2022-09-01T06:33:41.008Z,17.39
2022-09-01T06:36:10.863Z,17.28
2022-09-01T06:38:40.043Z,17.39
2022-09-01T06:41:10.733Z,17.39
2022-09-01T06:43:41.814Z,17.66
2022-09-01T06:46:12.041Z,17.69
2022-09-01T06:48:46.378Z,17.90
2022-09-01T06:51:38.865Z,17.89
2022-09-01T06:54:12.515Z,18.01
2022-09-01T06:56:45.013Z,18.13
2022-09-01T06:59:23.434Z,18.16
2022-09-01T07:02:01.382Z,18.18
2022-09-01T07:04:51.990Z,18.22
2022-09-01T07:10:31.565Z,18.15
2022-09-01T07:13:10.957Z,18.11
2022-09-01T07:18:37.204Z,17.96
2022-09-01T07:21:36.107Z,17.88
2022-09-01T07:24:10.703Z,17.84
2022-09-01T07:26:47.265Z,17.80
2022-09-01T07:29:33.047Z,17.73
2022-09-01T07:34:53.026Z,17.75
2022-09-01T07:43:44.863Z,17.83
2022-09-01T07:46:37.954Z,17.85
2022-09-01T07:49:30.655Z,17.86
2022-09-01T07:52:03.882Z,17.86
2022-09-01T07:54:36.268Z,17.89
2022-09-01T07:57:06.628Z,17.94
2022-09-01T07:59:37.670Z,17.98
2022-09-01T08:02:17.707Z,18.07
2022-09-01T08:04:48.298Z,18.20
2022-09-01T08:07:18.231Z,18.40
2022-09-01T08:09:49.294Z,18.68
2022-09-01T08:12:36.994Z,18.95
2022-09-01T08:17:58.266Z,18.97
2022-09-01T08:20:31.444Z,19.17
2022-09-01T08:23:13.427Z,19.30
2022-09-01T08:25:45.360Z,19.44
2022-09-01T08:29:40.118Z,19.50
2022-09-01T08:32:11.409Z,19.49
2022-09-01T08:34:40.863Z,19.38
2022-09-01T08:37:10.464Z,19.32
2022-09-01T08:39:40.827Z,19.29
2022-09-01T08:42:25.836Z,19.24
2022-09-01T08:45:12.381Z,19.50
2022-09-01T08:48:04.634Z,19.68
2022-09-01T08:51:09.897Z,19.90
2022-09-01T08:54:05.955Z,20.00
2022-09-01T08:57:03.692Z,20.07
2022-09-01T09:00:13.722Z,20.18
2022-09-01T09:03:22.769Z,20.28
2022-09-01T09:06:07.156Z,20.14
2022-09-01T09:08:59.108Z,19.91
2022-09-01T09:12:08.725Z,19.94
2022-09-01T09:15:02.320Z,20.21
2022-09-01T09:17:39.786Z,20.77
2022-09-01T09:20:10.783Z,20.08
2022-09-01T09:22:51.607Z,20.74
2022-09-01T09:25:35.834Z,21.29
2022-09-01T09:28:12.139Z,21.89
2022-09-01T09:30:41.931Z,22.25
2022-09-01T09:33:52.148Z,22.36
2022-09-01T09:36:37.076Z,22.61
2022-09-01T09:39:19.521Z,22.93
2022-09-01T09:42:09.645Z,23.24
2022-09-01T09:44:48.226Z,23.40
2022-09-01T09:47:46.289Z,23.67
2022-09-01T09:50:25.429Z,23.99
2022-09-01T09:53:27.613Z,23.84
2022-09-01T09:56:09.332Z,23.88
2022-09-01T09:58:44.517Z,24.33
2022-09-01T10:01:17.778Z,24.32
2022-09-01T10:04:00.162Z,24.63
2022-09-01T10:06:45.428Z,24.71
2022-09-01T10:09:43.818Z,24.54
2022-09-01T10:12:16.960Z,24.71
2022-09-01T10:14:53.370Z,24.87
2022-09-01T10:17:30.928Z,25.07
2022-09-01T10:20:05.671Z,25.11
2022-09-01T10:22:38.739Z,25.06
2022-09-01T10:25:11.092Z,25.05
2022-09-01T10:27:49.180Z,24.85
2022-09-01T10:30:23.182Z,24.58
2022-09-01T10:33:03.414Z,24.48
2022-09-01T10:35:40.997Z,24.44
2022-09-01T10:38:19.191Z,24.62
2022-09-01T10:41:07.336Z,24.92
2022-09-01T10:43:45.419Z,25.20
2022-09-01T10:46:50.981Z,25.56
2022-09-01T10:50:07.501Z,25.81
2022-09-01T10:52:58.388Z,25.55
2022-09-01T10:55:38.425Z,25.31
2022-09-01T11:02:26.419Z,24.42
2022-09-01T11:05:17.951Z,24.84
2022-09-01T11:08:15.397Z,25.20
2022-09-01T11:11:02.438Z,25.48
2022-09-01T11:13:49.746Z,25.29
2022-09-01T11:16:51.902Z,25.20
2022-09-01T11:19:46.254Z,25.11
2022-09-01T11:22:42.927Z,25.16
2022-09-01T11:25:39.704Z,25.11
2022-09-01T11:28:42.094Z,25.30
2022-09-01T11:31:41.050Z,25.21
2022-09-01T11:34:20.705Z,25.04
2022-09-01T11:37:04.966Z,25.18
2022-09-01T11:40:14.129Z,25.03
2022-09-01T11:43:38.421Z,25.62
2022-09-01T11:46:43.833Z,25.86
2022-09-01T11:49:32.668Z,25.88
2022-09-01T11:52:18.671Z,25.80
2022-09-01T11:54:51.891Z,25.44
2022-09-01T11:57:36.845Z,25.42
2022-09-01T12:00:12.214Z,25.32
2022-09-01T12:02:48.698Z,25.45
2022-09-01T12:05:38.949Z,25.35
2022-09-01T12:08:18.473Z,25.56
2022-09-01T12:11:07.803Z,25.50
2022-09-01T12:13:41.343Z,25.46
2022-09-01T12:16:40.264Z,25.20
2022-09-01T12:19:35.975Z,25.04
2022-09-01T12:22:30.720Z,24.85
2022-09-01T12:25:09.677Z,24.88
2022-09-01T12:27:40.433Z,25.00
2022-09-01T12:30:14.700Z,25.35
2022-09-01T12:32:47.144Z,25.42
2022-09-01T12:35:26.306Z,25.85
2022-09-01T12:38:51.294Z,26.08
2022-09-01T12:42:00.392Z,26.23
2022-09-01T12:44:35.624Z,26.30
2022-09-01T12:47:10.133Z,26.71
2022-09-01T12:49:50.693Z,27.59
2022-09-01T12:52:27.851Z,28.59
2022-09-01T12:58:06.023Z,29.97
2022-09-01T13:01:21.495Z,30.11
2022-09-01T13:04:46.683Z,30.82
2022-09-01T13:07:23.511Z,30.53
2022-09-01T13:09:56.966Z,31.04
2022-09-01T13:12:32.160Z,30.60
2022-09-01T13:15:23.660Z,29.63
2022-09-01T13:18:27.171Z,28.94
2022-09-01T13:20:59.810Z,29.25
2022-09-01T13:27:33.439Z,28.72
2022-09-01T13:30:36.872Z,28.18
2022-09-01T13:34:09.163Z,27.59
2022-09-01T13:36:52.176Z,28.34
2022-09-01T13:40:49.087Z,28.13
2022-09-01T13:43:27.288Z,28.41
2022-09-01T13:46:08.198Z,28.36
2022-09-01T13:51:37.939Z,28.24
2022-09-01T13:54:07.498Z,28.38
2022-09-01T13:56:37.618Z,27.62
2022-09-01T13:59:08.234Z,27.98
2022-09-01T14:01:37.570Z,26.23
2022-09-01T14:04:36.329Z,26.50
2022-09-01T14:07:06.746Z,26.56
2022-09-01T14:10:01.677Z,26.62
2022-09-01T14:12:32.098Z,26.61
2022-09-01T14:15:19.865Z,27.02
2022-09-01T14:17:57.530Z,28.46
2022-09-01T14:20:31.535Z,29.67
2022-09-01T14:23:11.885Z,29.15
2022-09-01T14:25:49.411Z,28.34
2022-09-01T14:28:25.746Z,27.51
2022-09-01T14:32:19.021Z,27.10
2022-09-01T14:34:54.479Z,26.22
2022-09-01T14:37:25.368Z,26.45
2022-09-01T14:41:22.004Z,26.95
2022-09-01T14:44:00.954Z,29.99
2022-09-01T14:46:53.818Z,30.30
2022-09-01T14:49:25.114Z,29.54
2022-09-01T14:52:11.657Z,28.93
2022-09-01T14:54:43.302Z,30.16
2022-09-01T14:57:36.779Z,33.01
2022-09-01T15:00:06.232Z,34.59
2022-09-01T15:02:36.281Z,34.15
2022-09-01T15:05:06.756Z,32.21
2022-09-01T15:07:38.088Z,30.48
2022-09-01T15:10:15.864Z,28.97
2022-09-01T15:13:10.355Z,26.49
2022-09-01T15:15:42.921Z,26.12
2022-09-01T15:18:12.773Z,25.59
2022-09-01T15:20:51.196Z,26.26
2022-09-01T15:23:54.206Z,26.87
2022-09-01T15:26:36.995Z,25.84
2022-09-01T15:29:46.839Z,24.89
2022-09-01T15:32:39.277Z,24.45
2022-09-01T15:35:11.329Z,24.14
2022-09-01T15:37:51.662Z,23.82
2022-09-01T15:40:33.899Z,23.44
2022-09-01T15:43:11.649Z,23.44
2022-09-01T15:46:08.665Z,23.37
2022-09-01T15:48:39.800Z,23.65
2022-09-01T15:52:03.183Z,23.58
2022-09-01T15:54:32.475Z,23.28
2022-09-01T15:57:04.267Z,23.13
2022-09-01T15:59:43.664Z,23.21
2022-09-01T16:32:08.932Z,27.17
2022-09-01T16:34:42.507Z,26.26
2022-09-01T16:37:23.175Z,25.01
2022-09-01T16:40:00.209Z,23.95
2022-09-01T16:42:38.449Z,23.10
2022-09-01T16:45:13.992Z,22.59
2022-09-01T16:48:03.053Z,21.88
2022-09-01T16:50:44.844Z,21.63
2022-09-01T16:53:33.802Z,21.32
2022-09-01T16:56:11.083Z,20.85
2022-09-01T16:58:55.267Z,20.62
2022-09-01T17:01:38.389Z,20.41
2022-09-01T17:04:23.035Z,20.29
2022-09-01T17:07:06.157Z,20.24
2022-09-01T17:09:42.054Z,20.10
2022-09-01T17:12:25.262Z,19.96
2022-09-01T17:14:59.934Z,19.82
2022-09-01T17:17:40.086Z,19.76
2022-09-01T17:20:12.032Z,19.71
2022-09-01T17:22:52.375Z,19.63
2022-09-01T17:25:31.051Z,19.61
2022-09-01T17:28:07.116Z,19.59
2022-09-01T17:30:45.492Z,19.55
2022-09-01T17:33:25.559Z,19.50
2022-09-01T17:36:14.075Z,19.34
2022-09-01T17:38:57.338Z,19.24
2022-09-01T17:41:38.084Z,19.18
2022-09-01T17:44:21.312Z,19.16
2022-09-01T17:47:02.048Z,19.13
2022-09-01T17:49:39.960Z,19.12
2022-09-01T17:52:17.017Z,19.09
2022-09-01T17:54:56.469Z,19.00
2022-09-01T17:57:34.072Z,18.98
2022-09-01T18:00:09.436Z,18.85
2022-09-01T18:02:58.904Z,18.63
2022-09-01T18:05:29.015Z,18.66
2022-09-01T18:08:30.084Z,18.57
2022-09-01T18:11:03.449Z,18.53
2022-09-01T18:13:56.721Z,18.37
2022-09-01T18:16:30.152Z,18.40
2022-09-01T18:19:05.713Z,18.39
2022-09-01T18:21:39.429Z,18.42
2022-09-01T18:24:19.396Z,18.31
2022-09-01T18:26:51.562Z,18.28
2022-09-01T18:29:23.209Z,18.24
2022-09-01T18:32:17.944Z,18.14
2022-09-01T18:35:03.889Z,18.06
2022-09-01T18:37:40.465Z,18.05
2022-09-01T18:40:22.645Z,18.01
2022-09-01T18:43:01.689Z,17.95
2022-09-01T18:45:41.906Z,17.93
2022-09-01T18:48:26.279Z,17.75
2022-09-01T18:51:02.251Z,17.61
2022-09-01T18:53:43.450Z,17.57
2022-09-01T18:56:26.778Z,17.49
2022-09-01T18:59:16.364Z,17.44
2022-09-01T19:02:00.876Z,17.40
2022-09-01T19:04:33.726Z,17.38
2022-09-01T19:07:18.397Z,17.29
2022-09-01T19:09:56.251Z,17.30
2022-09-01T19:12:37.088Z,17.20
2022-09-01T19:15:13.985Z,17.17
2022-09-01T19:18:01.298Z,17.19
2022-09-01T19:20:41.196Z,16.99
2022-09-01T19:23:17.658Z,17.09
2022-09-01T19:25:47.704Z,16.97
2022-09-01T19:28:27.117Z,17.03
2022-09-01T19:31:05.110Z,16.96
2022-09-01T19:33:41.864Z,16.93
2022-09-01T19:36:20.176Z,16.96
2022-09-01T19:38:49.575Z,16.98
2022-09-01T19:41:25.531Z,17.00
2022-09-01T19:44:05.455Z,17.02
2022-09-01T19:46:42.387Z,17.13
2022-09-01T19:49:27.288Z,17.24
2022-09-01T19:52:06.950Z,17.25
2022-09-01T19:54:48.105Z,17.38
2022-09-01T19:57:25.019Z,17.34
2022-09-01T20:00:05.641Z,17.33
2022-09-01T20:02:41.783Z,17.39
2022-09-01T20:05:23.340Z,17.46
2022-09-01T20:07:56.704Z,17.43
2022-09-01T20:10:55.331Z,17.50
2022-09-01T20:14:01.316Z,17.50
2022-09-01T20:16:40.196Z,17.58
2022-09-01T20:19:13.938Z,17.58
2022-09-01T20:21:47.109Z,17.55
2022-09-01T20:24:28.926Z,17.64
2022-09-01T20:27:03.605Z,17.60
2022-09-01T20:29:55.881Z,17.56
2022-09-01T20:32:36.620Z,17.59
2022-09-01T20:35:14.784Z,17.61
2022-09-01T20:37:50.685Z,17.55
2022-09-01T20:40:27.528Z,17.54
2022-09-01T20:43:12.648Z,17.51
2022-09-01T20:45:42.797Z,17.51
2022-09-01T20:48:18.893Z,17.64
2022-09-01T20:50:57.275Z,17.61
2022-09-01T20:53:48.623Z,17.57
2022-09-01T20:56:27.104Z,17.53
2022-09-01T20:59:03.444Z,17.50
2022-09-01T21:01:41.241Z,17.48
2022-09-01T21:04:31.234Z,17.48
2022-09-01T21:07:09.464Z,17.48
2022-09-01T21:09:53.229Z,17.34
2022-09-01T21:12:35.318Z,17.28
2022-09-01T21:15:19.329Z,17.23
2022-09-01T21:18:07.824Z,17.22
2022-09-01T21:20:56.609Z,17.22
2022-09-01T21:23:26.408Z,17.18
2022-09-01T21:25:55.888Z,17.11
2022-09-01T21:28:27.916Z,17.09
2022-09-01T21:31:00.016Z,17.08
2022-09-01T21:33:31.889Z,17.08
2022-09-01T21:36:03.613Z,17.10
2022-09-01T21:38:32.803Z,17.11
2022-09-01T21:41:02.764Z,17.14
2022-09-01T21:43:35.596Z,17.15
2022-09-01T21:46:08.165Z,17.15
2022-09-01T21:48:37.863Z,17.27
2022-09-01T21:51:08.676Z,17.21
2022-09-01T21:53:38.020Z,17.22
2022-09-01T21:56:09.664Z,17.19
2022-09-01T21:58:43.632Z,17.21
2022-09-01T22:01:19.583Z,17.21
2022-09-01T22:03:49.042Z,17.14
2022-09-01T22:06:19.937Z,17.00
2022-09-01T22:08:49.270Z,17.07
2022-09-01T22:11:19.836Z,17.05
2022-09-01T22:13:52.496Z,17.11
2022-09-01T22:16:24.954Z,17.05
2022-09-01T22:18:54.376Z,17.11
2022-09-01T22:21:25.862Z,17.09
2022-09-01T22:23:55.229Z,17.11
2022-09-01T22:26:28.611Z,17.01
2022-09-01T22:29:01.297Z,16.94
2022-09-01T22:31:34.310Z,16.93
2022-09-01T22:34:04.316Z,16.94
2022-09-01T22:36:44.278Z,16.96
2022-09-01T22:39:19.195Z,16.88
2022-09-01T22:41:53.781Z,17.01
2022-09-01T22:44:23.448Z,16.93
2022-09-01T22:46:53.650Z,16.89
2022-09-01T22:49:35.035Z,16.78
2022-09-01T22:52:07.113Z,16.77
2022-09-01T22:54:36.398Z,16.77
2022-09-01T22:57:06.062Z,16.69
2022-09-01T22:59:35.255Z,16.85
2022-09-01T23:02:04.820Z,16.86
2022-09-01T23:04:34.849Z,16.86
2022-09-01T23:07:07.659Z,16.82
2022-09-01T23:09:37.310Z,16.86
2022-09-01T23:12:07.271Z,16.83
2022-09-01T23:14:36.706Z,16.83
2022-09-01T23:17:06.181Z,16.77
2022-09-01T23:19:35.687Z,16.75
2022-09-01T23:22:06.603Z,16.73
2022-09-01T23:24:36.033Z,16.74
2022-09-01T23:27:08.707Z,16.66
2022-09-01T23:29:40.478Z,16.70
2022-09-01T23:32:09.911Z,16.55
2022-09-01T23:34:43.329Z,16.59
2022-09-01T23:37:14.178Z,16.61
2022-09-01T23:39:43.567Z,16.59
2022-09-01T23:42:12.877Z,16.53
2022-09-01T23:44:42.085Z,16.56
2022-09-01T23:47:11.580Z,16.58
2022-09-01T23:49:42.023Z,16.54
2022-09-01T23:52:14.399Z,16.61
2022-09-01T23:54:43.772Z,16.56
2022-09-01T23:57:14.125Z,16.56
2022-09-01T23:59:43.578Z,16.54
